sensor_id;sensor_type;location;lat;lon;timestamp;pressure;altitude;pressure_sealevel;temperature;humidity
23318;BME280;11831;55.918;37.746;2023-02-28T00:00:20;99742.00;;;-5.63;0.00
23318;BME280;11831;55.918;37.746;2023-02-28T00:02:48;99756.38;;;-6.14;0.00
23318;BME280;11831;55.918;37.746;2023-02-28T00:05:17;99742.87;;;-6.19;0.00
23318;BME280;11831;55.918;37.746;2023-02-28T00:07:44;99730.03;;;-5.76;0.00
23318;BME280;11831;55.918;37.746;2023-02-28T00:10:14;99752.97;;;-6.04;0.00
23318;BME280;11831;55.918;37.746;2023-02-28T00:12:41;99752.19;;;-6.28;0.00
23318;BME280;11831;55.918;37.746;2023-02-28T00:15:09;99742.00;;;-6.42;0.00
23318;BME280;11831;55.918;37.746;2023-02-28T00:17:36;99720.13;;;-6.29;0.00
23318;BME280;11831;55.918;37.746;2023-02-28T00:20:04;99725.84;;;-6.12;0.00
23318;BME280;11831;55.918;37.746;2023-02-28T00:22:34;99730.25;;;-6.02;0.00
23318;BME280;11831;55.918;37.746;2023-02-28T00:25:00;99718.50;;;-6.18;0.00
23318;BME280;11831;55.918;37.746;2023-02-28T00:27:27;99726.06;;;-6.62;0.00
23318;BME280;11831;55.918;37.746;2023-02-28T00:29:53;99706.53;;;-6.32;0.00
23318;BME280;11831;55.918;37.746;2023-02-28T00:32:20;99720.78;;;-6.49;0.00
23318;BME280;11831;55.918;37.746;2023-02-28T00:34:47;99744.16;;;-6.60;0.00
23318;BME280;11831;55.918;37.746;2023-02-28T00:37:13;99728.16;;;-6.67;0.00
23318;BME280;11831;55.918;37.746;2023-02-28T00:39:40;99716.97;;;-6.56;0.00
23318;BME280;11831;55.918;37.746;2023-02-28T00:42:07;99698.91;;;-6.46;0.00
23318;BME280;11831;55.918;37.746;2023-02-28T00:44:34;99694.16;;;-6.52;0.00
23318;BME280;11831;55.918;37.746;2023-02-28T00:47:00;99696.81;;;-6.41;0.00
23318;BME280;11831;55.918;37.746;2023-02-28T00:49:27;99691.28;;;-6.61;0.00
23318;BME280;11831;55.918;37.746;2023-02-28T00:51:54;99696.19;;;-6.45;0.00
23318;BME280;11831;55.918;37.746;2023-02-28T00:54:22;99680.19;;;-6.63;0.00
23318;BME280;11831;55.918;37.746;2023-02-28T00:56:49;99681.50;;;-6.57;0.00
23318;BME280;11831;55.918;37.746;2023-02-28T00:59:17;99669.03;;;-6.30;0.00
23318;BME280;11831;55.918;37.746;2023-02-28T01:01:45;99665.41;;;-6.51;0.00
23318;BME280;11831;55.918;37.746;2023-02-28T01:04:13;99668.72;;;-6.60;0.00
23318;BME280;11831;55.918;37.746;2023-02-28T01:06:40;99641.34;;;-6.42;0.00
23318;BME280;11831;55.918;37.746;2023-02-28T01:09:10;99643.91;;;-6.53;0.00
23318;BME280;11831;55.918;37.746;2023-02-28T01:11:37;99643.13;;;-6.31;0.00
23318;BME280;11831;55.918;37.746;2023-02-28T01:14:03;99632.03;;;-6.68;0.00
23318;BME280;11831;55.918;37.746;2023-02-28T01:16:30;99631.22;;;-6.69;0.00
23318;BME280;11831;55.918;37.746;2023-02-28T01:18:57;99624.78;;;-6.76;0.00
23318;BME280;11831;55.918;37.746;2023-02-28T01:21:23;99624.03;;;-6.89;0.00
23318;BME280;11831;55.918;37.746;2023-02-28T01:23:51;99600.53;;;-6.41;0.00
23318;BME280;11831;55.918;37.746;2023-02-28T01:26:22;99614.19;;;-6.73;0.00
23318;BME280;11831;55.918;37.746;2023-02-28T01:28:50;99597.41;;;-6.69;0.00
23318;BME280;11831;55.918;37.746;2023-02-28T01:31:19;99588.38;;;-6.76;0.00
23318;BME280;11831;55.918;37.746;2023-02-28T01:33:46;99572.34;;;-6.47;0.00
23318;BME280;11831;55.918;37.746;2023-02-28T01:36:18;99588.00;;;-6.82;0.00
23318;BME280;11831;55.918;37.746;2023-02-28T01:38:45;99568.97;;;-6.83;0.00
23318;BME280;11831;55.918;37.746;2023-02-28T01:41:19;99581.63;;;-6.78;0.00
23318;BME280;11831;55.918;37.746;2023-02-28T01:46:13;99565.09;;;-6.77;0.00
23318;BME280;11831;55.918;37.746;2023-02-28T01:48:46;99583.28;;;-6.89;0.00
23318;BME280;11831;55.918;37.746;2023-02-28T01:51:21;99574.28;;;-6.96;0.00
23318;BME280;11831;55.918;37.746;2023-02-28T01:53:52;99572.88;;;-6.77;0.00
23318;BME280;11831;55.918;37.746;2023-02-28T01:56:26;99564.25;;;-6.89;0.00
23318;BME280;11831;55.918;37.746;2023-02-28T01:58:54;99553.06;;;-6.45;0.00
23318;BME280;11831;55.918;37.746;2023-02-28T02:01:22;99557.69;;;-6.48;0.00
23318;BME280;11831;55.918;37.746;2023-02-28T02:04:01;99572.34;;;-7.05;0.00
23318;BME280;11831;55.918;37.746;2023-02-28T02:06:34;99572.47;;;-6.71;0.00
23318;BME280;11831;55.918;37.746;2023-02-28T02:09:02;99544.91;;;-6.51;0.00
23318;BME280;11831;55.918;37.746;2023-02-28T02:11:29;99558.16;;;-6.43;0.00
23318;BME280;11831;55.918;37.746;2023-02-28T02:17:16;99523.69;;;-7.03;0.00
23318;BME280;11831;55.918;37.746;2023-02-28T02:25:19;99518.69;;;-7.06;0.00
23318;BME280;11831;55.918;37.746;2023-02-28T02:31:09;99515.78;;;-7.01;0.00
23318;BME280;11831;55.918;37.746;2023-02-28T02:36:21;99501.25;;;-6.93;0.00
23318;BME280;11831;55.918;37.746;2023-02-28T02:39:10;99501.41;;;-6.61;0.00
23318;BME280;11831;55.918;37.746;2023-02-28T02:41:47;99490.41;;;-6.64;0.00
23318;BME280;11831;55.918;37.746;2023-02-28T02:44:22;99470.19;;;-6.83;0.00
23318;BME280;11831;55.918;37.746;2023-02-28T02:46:54;99479.06;;;-6.52;0.00
23318;BME280;11831;55.918;37.746;2023-02-28T02:49:26;99486.50;;;-6.59;0.00
23318;BME280;11831;55.918;37.746;2023-02-28T02:51:54;99474.06;;;-6.77;0.00
23318;BME280;11831;55.918;37.746;2023-02-28T02:54:35;99480.47;;;-6.81;0.00
23318;BME280;11831;55.918;37.746;2023-02-28T02:57:11;99487.91;;;-6.88;0.00
23318;BME280;11831;55.918;37.746;2023-02-28T02:59:40;99468.75;;;-6.98;0.00
23318;BME280;11831;55.918;37.746;2023-02-28T03:02:11;99473.13;;;-6.99;0.00
23318;BME280;11831;55.918;37.746;2023-02-28T03:04:48;99443.13;;;-6.92;0.00
23318;BME280;11831;55.918;37.746;2023-02-28T03:07:17;99500.13;;;-7.12;0.00
23318;BME280;11831;55.918;37.746;2023-02-28T03:09:54;99445.97;;;-6.72;0.00
23318;BME280;11831;55.918;37.746;2023-02-28T03:12:24;99439.22;;;-6.86;0.00
23318;BME280;11831;55.918;37.746;2023-02-28T03:18:22;99437.91;;;-6.92;0.00
23318;BME280;11831;55.918;37.746;2023-02-28T03:24:11;99426.56;;;-6.57;0.00
23318;BME280;11831;55.918;37.746;2023-02-28T03:26:44;99381.50;;;-6.58;0.00
23318;BME280;11831;55.918;37.746;2023-02-28T03:29:28;99413.66;;;-6.36;0.00
23318;BME280;11831;55.918;37.746;2023-02-28T03:32:26;99426.53;;;-6.46;0.00
23318;BME280;11831;55.918;37.746;2023-02-28T03:35:06;99407.84;;;-6.29;0.00
23318;BME280;11831;55.918;37.746;2023-02-28T03:37:38;99396.38;;;-6.37;0.00
23318;BME280;11831;55.918;37.746;2023-02-28T03:40:12;99403.56;;;-6.30;0.00
23318;BME280;11831;55.918;37.746;2023-02-28T03:42:42;99396.63;;;-6.51;0.00
23318;BME280;11831;55.918;37.746;2023-02-28T03:45:21;99391.87;;;-6.35;0.00
23318;BME280;11831;55.918;37.746;2023-02-28T03:47:57;99392.97;;;-6.49;0.00
23318;BME280;11831;55.918;37.746;2023-02-28T03:50:35;99374.78;;;-6.60;0.00
23318;BME280;11831;55.918;37.746;2023-02-28T03:53:15;99387.25;;;-6.43;0.00
23318;BME280;11831;55.918;37.746;2023-02-28T03:55:49;99384.25;;;-6.70;0.00
23318;BME280;11831;55.918;37.746;2023-02-28T04:01:10;99376.87;;;-6.54;0.00
23318;BME280;11831;55.918;37.746;2023-02-28T04:03:39;99355.25;;;-6.54;0.00
23318;BME280;11831;55.918;37.746;2023-02-28T04:06:15;99358.72;;;-6.76;0.00
23318;BME280;11831;55.918;37.746;2023-02-28T04:08:42;99368.91;;;-6.73;0.00
23318;BME280;11831;55.918;37.746;2023-02-28T04:11:32;99356.94;;;-6.65;0.00
23318;BME280;11831;55.918;37.746;2023-02-28T04:13:59;99349.25;;;-6.66;0.00
23318;BME280;11831;55.918;37.746;2023-02-28T04:16:25;99350.09;;;-6.77;0.00
23318;BME280;11831;55.918;37.746;2023-02-28T04:18:51;99354.47;;;-6.66;0.00
23318;BME280;11831;55.918;37.746;2023-02-28T04:21:17;99350.34;;;-6.91;0.00
23318;BME280;11831;55.918;37.746;2023-02-28T04:23:46;99333.91;;;-6.69;0.00
23318;BME280;11831;55.918;37.746;2023-02-28T04:26:12;99321.88;;;-6.49;0.00
23318;BME280;11831;55.918;37.746;2023-02-28T04:28:39;99312.56;;;-6.52;0.00
23318;BME280;11831;55.918;37.746;2023-02-28T04:31:05;99324.94;;;-6.44;0.00
23318;BME280;11831;55.918;37.746;2023-02-28T04:33:32;99306.50;;;-6.41;0.00
23318;BME280;11831;55.918;37.746;2023-02-28T04:38:25;99280.03;;;-6.46;0.00
23318;BME280;11831;55.918;37.746;2023-02-28T04:40:52;99292.84;;;-6.02;0.00
23318;BME280;11831;55.918;37.746;2023-02-28T04:43:18;99337.75;;;-6.41;0.00
23318;BME280;11831;55.918;37.746;2023-02-28T04:45:44;99314.59;;;-6.55;0.00
23318;BME280;11831;55.918;37.746;2023-02-28T04:48:10;99282.03;;;-6.39;0.00
23318;BME280;11831;55.918;37.746;2023-02-28T04:50:36;99283.63;;;-6.27;0.00
23318;BME280;11831;55.918;37.746;2023-02-28T04:53:03;99284.25;;;-6.34;0.00
23318;BME280;11831;55.918;37.746;2023-02-28T04:55:29;99264.13;;;-6.32;0.00
23318;BME280;11831;55.918;37.746;2023-02-28T04:57:55;99251.91;;;-6.00;0.00
23318;BME280;11831;55.918;37.746;2023-02-28T05:00:21;99266.09;;;-6.24;0.00
23318;BME280;11831;55.918;37.746;2023-02-28T05:02:47;99251.06;;;-6.42;0.00
23318;BME280;11831;55.918;37.746;2023-02-28T05:05:14;99246.16;;;-6.35;0.00
23318;BME280;11831;55.918;37.746;2023-02-28T05:07:44;99243.31;;;-6.32;0.00
23318;BME280;11831;55.918;37.746;2023-02-28T05:10:11;99229.84;;;-6.37;0.00
23318;BME280;11831;55.918;37.746;2023-02-28T05:12:38;99242.53;;;-6.23;0.00
23318;BME280;11831;55.918;37.746;2023-02-28T05:15:05;99216.97;;;-6.18;0.00
23318;BME280;11831;55.918;37.746;2023-02-28T05:17:31;99232.59;;;-6.39;0.00
23318;BME280;11831;55.918;37.746;2023-02-28T05:19:58;99231.91;;;-6.52;0.00
23318;BME280;11831;55.918;37.746;2023-02-28T05:22:24;99228.56;;;-6.43;0.00
23318;BME280;11831;55.918;37.746;2023-02-28T05:24:50;99198.69;;;-6.28;0.00
23318;BME280;11831;55.918;37.746;2023-02-28T05:27:17;99194.25;;;-6.37;0.00
23318;BME280;11831;55.918;37.746;2023-02-28T05:29:43;99211.62;;;-6.58;0.00
23318;BME280;11831;55.918;37.746;2023-02-28T05:32:10;99210.88;;;-6.07;0.00
23318;BME280;11831;55.918;37.746;2023-02-28T05:34:40;99185.47;;;-6.15;0.00
23318;BME280;11831;55.918;37.746;2023-02-28T05:37:11;99196.97;;;-6.17;0.00
23318;BME280;11831;55.918;37.746;2023-02-28T05:39:38;99184.38;;;-6.12;0.00
23318;BME280;11831;55.918;37.746;2023-02-28T05:42:04;99204.06;;;-6.19;0.00
23318;BME280;11831;55.918;37.746;2023-02-28T05:44:31;99202.72;;;-6.14;0.00
23318;BME280;11831;55.918;37.746;2023-02-28T05:46:57;99167.06;;;-5.62;0.00
23318;BME280;11831;55.918;37.746;2023-02-28T05:49:23;99202.69;;;-6.03;0.00
23318;BME280;11831;55.918;37.746;2023-02-28T05:51:49;99134.69;;;-5.69;0.00
23318;BME280;11831;55.918;37.746;2023-02-28T05:54:16;99164.28;;;-5.70;0.00
23318;BME280;11831;55.918;37.746;2023-02-28T05:56:42;99147.13;;;-5.33;0.00
23318;BME280;11831;55.918;37.746;2023-02-28T05:59:12;99143.88;;;-5.15;0.00
23318;BME280;11831;55.918;37.746;2023-02-28T06:01:44;99113.41;;;-5.15;0.00
23318;BME280;11831;55.918;37.746;2023-02-28T06:04:19;99104.06;;;-5.27;0.00
23318;BME280;11831;55.918;37.746;2023-02-28T06:06:47;99095.41;;;-5.27;0.00
23318;BME280;11831;55.918;37.746;2023-02-28T06:09:13;99089.25;;;-5.17;0.00
23318;BME280;11831;55.918;37.746;2023-02-28T06:11:40;99100.09;;;-5.02;0.00
23318;BME280;11831;55.918;37.746;2023-02-28T06:14:07;99127.09;;;-5.22;0.00
23318;BME280;11831;55.918;37.746;2023-02-28T06:16:34;99089.34;;;-4.60;0.00
23318;BME280;11831;55.918;37.746;2023-02-28T06:19:03;99133.56;;;-4.97;0.00
23318;BME280;11831;55.918;37.746;2023-02-28T06:21:30;99084.69;;;-4.66;0.00
23318;BME280;11831;55.918;37.746;2023-02-28T06:23:57;99112.97;;;-4.52;0.00
23318;BME280;11831;55.918;37.746;2023-02-28T06:26:24;99083.12;;;-3.93;0.00
23318;BME280;11831;55.918;37.746;2023-02-28T06:28:50;99109.00;;;-4.66;0.00
23318;BME280;11831;55.918;37.746;2023-02-28T06:31:18;99080.97;;;-4.54;0.00
23318;BME280;11831;55.918;37.746;2023-02-28T06:33:45;99083.81;;;-4.38;0.00
23318;BME280;11831;55.918;37.746;2023-02-28T06:36:14;99082.62;;;-4.63;0.00
23318;BME280;11831;55.918;37.746;2023-02-28T06:38:41;99028.44;;;-4.04;0.00
23318;BME280;11831;55.918;37.746;2023-02-28T06:41:08;99023.50;;;-4.08;0.00
23318;BME280;11831;55.918;37.746;2023-02-28T06:43:38;99009.00;;;-4.20;0.00
23318;BME280;11831;55.918;37.746;2023-02-28T06:46:07;99028.53;;;-4.24;0.00
23318;BME280;11831;55.918;37.746;2023-02-28T06:48:34;99029.81;;;-4.28;0.00
23318;BME280;11831;55.918;37.746;2023-02-28T06:51:12;99036.00;;;-4.39;0.00
23318;BME280;11831;55.918;37.746;2023-02-28T06:53:40;99034.56;;;-4.60;0.00
23318;BME280;11831;55.918;37.746;2023-02-28T06:56:09;99058.38;;;-5.02;0.00
23318;BME280;11831;55.918;37.746;2023-02-28T06:58:36;99012.25;;;-4.82;0.00
23318;BME280;11831;55.918;37.746;2023-02-28T07:01:03;98979.06;;;-4.53;0.00
23318;BME280;11831;55.918;37.746;2023-02-28T07:03:30;99014.16;;;-4.84;0.00
23318;BME280;11831;55.918;37.746;2023-02-28T07:05:57;98974.91;;;-4.83;0.00
23318;BME280;11831;55.918;37.746;2023-02-28T07:08:24;98961.19;;;-4.94;0.00
23318;BME280;11831;55.918;37.746;2023-02-28T07:10:54;98943.91;;;-4.86;0.00
23318;BME280;11831;55.918;37.746;2023-02-28T07:13:21;98944.09;;;-4.70;0.00
23318;BME280;11831;55.918;37.746;2023-02-28T07:16:13;98983.56;;;-4.92;0.00
23318;BME280;11831;55.918;37.746;2023-02-28T07:18:40;98957.13;;;-4.70;0.00
23318;BME280;11831;55.918;37.746;2023-02-28T07:21:08;98943.25;;;-4.33;0.00
23318;BME280;11831;55.918;37.746;2023-02-28T07:23:35;98945.19;;;-4.35;0.00
23318;BME280;11831;55.918;37.746;2023-02-28T07:26:07;98936.53;;;-4.35;0.00
23318;BME280;11831;55.918;37.746;2023-02-28T07:28:37;98951.31;;;-4.54;0.00
23318;BME280;11831;55.918;37.746;2023-02-28T07:31:07;98945.03;;;-4.33;0.00
23318;BME280;11831;55.918;37.746;2023-02-28T07:33:34;98927.63;;;-4.15;0.00
23318;BME280;11831;55.918;37.746;2023-02-28T07:36:05;98940.94;;;-4.36;0.00
23318;BME280;11831;55.918;37.746;2023-02-28T07:38:36;98963.38;;;-4.16;0.00
23318;BME280;11831;55.918;37.746;2023-02-28T07:41:03;98940.16;;;-4.01;0.00
23318;BME280;11831;55.918;37.746;2023-02-28T07:43:31;98939.31;;;-3.92;0.00
23318;BME280;11831;55.918;37.746;2023-02-28T07:46:04;98953.72;;;-3.88;0.00
23318;BME280;11831;55.918;37.746;2023-02-28T07:48:31;98924.31;;;-3.54;0.00
23318;BME280;11831;55.918;37.746;2023-02-28T07:50:59;98954.53;;;-3.69;0.00
23318;BME280;11831;55.918;37.746;2023-02-28T07:53:26;98918.78;;;-3.87;0.00
23318;BME280;11831;55.918;37.746;2023-02-28T07:56:01;98923.47;;;-3.72;0.00
23318;BME280;11831;55.918;37.746;2023-02-28T07:58:28;98939.22;;;-3.82;0.00
23318;BME280;11831;55.918;37.746;2023-02-28T08:00:55;98917.59;;;-3.92;0.00
23318;BME280;11831;55.918;37.746;2023-02-28T08:03:22;98899.66;;;-3.52;0.00
23318;BME280;11831;55.918;37.746;2023-02-28T08:05:49;98901.97;;;-3.49;0.00
23318;BME280;11831;55.918;37.746;2023-02-28T08:08:16;98916.03;;;-3.85;0.00
23318;BME280;11831;55.918;37.746;2023-02-28T08:10:43;98888.78;;;-3.65;0.00
23318;BME280;11831;55.918;37.746;2023-02-28T08:13:09;98891.91;;;-3.79;0.00
23318;BME280;11831;55.918;37.746;2023-02-28T08:15:36;98889.03;;;-3.50;0.00
23318;BME280;11831;55.918;37.746;2023-02-28T08:18:02;98869.62;;;-3.48;0.00
23318;BME280;11831;55.918;37.746;2023-02-28T08:20:29;98869.16;;;-3.43;0.00
23318;BME280;11831;55.918;37.746;2023-02-28T08:22:55;98885.31;;;-3.48;0.00
23318;BME280;11831;55.918;37.746;2023-02-28T08:25:21;98898.84;;;-3.52;0.00
23318;BME280;11831;55.918;37.746;2023-02-28T08:27:51;98919.22;;;-3.12;0.00
23318;BME280;11831;55.918;37.746;2023-02-28T08:30:17;98920.81;;;-3.19;0.00
23318;BME280;11831;55.918;37.746;2023-02-28T08:32:43;98934.59;;;-3.53;0.00
23318;BME280;11831;55.918;37.746;2023-02-28T08:35:10;98917.69;;;-3.23;0.00
23318;BME280;11831;55.918;37.746;2023-02-28T08:37:36;98935.06;;;-3.14;0.00
23318;BME280;11831;55.918;37.746;2023-02-28T08:40:03;98902.47;;;-3.01;0.00
23318;BME280;11831;55.918;37.746;2023-02-28T08:42:30;98925.47;;;-3.31;0.00
23318;BME280;11831;55.918;37.746;2023-02-28T08:44:56;98912.81;;;-3.18;0.00
23318;BME280;11831;55.918;37.746;2023-02-28T08:47:22;98935.00;;;-3.04;0.00
23318;BME280;11831;55.918;37.746;2023-02-28T08:49:49;98929.06;;;-3.32;0.00
23318;BME280;11831;55.918;37.746;2023-02-28T08:52:15;98942.03;;;-3.22;0.00
23318;BME280;11831;55.918;37.746;2023-02-28T08:54:41;98910.56;;;-3.13;0.00
23318;BME280;11831;55.918;37.746;2023-02-28T08:57:08;98917.91;;;-2.90;0.00
23318;BME280;11831;55.918;37.746;2023-02-28T08:59:34;98891.53;;;-2.97;0.00
23318;BME280;11831;55.918;37.746;2023-02-28T09:02:01;98883.16;;;-2.74;0.00
23318;BME280;11831;55.918;37.746;2023-02-28T09:04:27;98886.63;;;-3.00;0.00
23318;BME280;11831;55.918;37.746;2023-02-28T09:06:56;98872.87;;;-2.68;0.00
23318;BME280;11831;55.918;37.746;2023-02-28T09:09:22;98899.56;;;-2.90;0.00
23318;BME280;11831;55.918;37.746;2023-02-28T09:11:49;98925.91;;;-2.92;0.00
23318;BME280;11831;55.918;37.746;2023-02-28T09:14:15;98876.53;;;-2.87;0.00
23318;BME280;11831;55.918;37.746;2023-02-28T09:16:43;98854.44;;;-2.92;0.00
23318;BME280;11831;55.918;37.746;2023-02-28T09:19:12;98875.81;;;-2.71;0.00
23318;BME280;11831;55.918;37.746;2023-02-28T09:21:39;98908.12;;;-2.80;0.00
23318;BME280;11831;55.918;37.746;2023-02-28T09:24:06;98966.38;;;-3.04;0.00
23318;BME280;11831;55.918;37.746;2023-02-28T09:26:32;98876.03;;;-2.56;0.00
23318;BME280;11831;55.918;37.746;2023-02-28T09:29:00;98860.28;;;-2.72;0.00
23318;BME280;11831;55.918;37.746;2023-02-28T09:31:28;98851.81;;;-2.50;0.00
23318;BME280;11831;55.918;37.746;2023-02-28T09:33:56;98866.97;;;-2.70;0.00
23318;BME280;11831;55.918;37.746;2023-02-28T09:36:24;98855.47;;;-2.43;0.00
23318;BME280;11831;55.918;37.746;2023-02-28T09:38:50;98882.47;;;-2.42;0.00
23318;BME280;11831;55.918;37.746;2023-02-28T09:41:19;98839.06;;;-2.45;0.00
23318;BME280;11831;55.918;37.746;2023-02-28T09:43:53;98822.50;;;-2.62;0.00
23318;BME280;11831;55.918;37.746;2023-02-28T09:49:13;98856.13;;;-2.41;0.00
23318;BME280;11831;55.918;37.746;2023-02-28T09:51:46;98811.69;;;-2.67;0.00
23318;BME280;11831;55.918;37.746;2023-02-28T09:54:20;98822.09;;;-2.83;0.00
23318;BME280;11831;55.918;37.746;2023-02-28T09:56:59;98840.75;;;-2.78;0.00
23318;BME280;11831;55.918;37.746;2023-02-28T10:07:37;98808.84;;;-2.82;0.00
23318;BME280;11831;55.918;37.746;2023-02-28T10:10:42;98796.84;;;-2.58;0.00
23318;BME280;11831;55.918;37.746;2023-02-28T10:13:17;98788.06;;;-2.41;0.00
23318;BME280;11831;55.918;37.746;2023-02-28T10:15:51;98770.69;;;-2.17;0.00
23318;BME280;11831;55.918;37.746;2023-02-28T10:18:24;98791.81;;;-2.35;0.00
23318;BME280;11831;55.918;37.746;2023-02-28T10:20:53;98774.78;;;-2.15;0.00
23318;BME280;11831;55.918;37.746;2023-02-28T10:23:34;98786.41;;;-2.34;0.00
23318;BME280;11831;55.918;37.746;2023-02-28T10:26:13;98734.00;;;-2.50;0.00
23318;BME280;11831;55.918;37.746;2023-02-28T10:28:42;98752.38;;;-2.34;0.00
23318;BME280;11831;55.918;37.746;2023-02-28T10:31:17;98757.44;;;-2.40;0.00
23318;BME280;11831;55.918;37.746;2023-02-28T10:33:45;98758.25;;;-2.15;0.00
23318;BME280;11831;55.918;37.746;2023-02-28T10:36:14;98837.81;;;-2.16;0.00
23318;BME280;11831;55.918;37.746;2023-02-28T10:38:43;98758.25;;;-2.40;0.00
23318;BME280;11831;55.918;37.746;2023-02-28T10:41:15;98748.44;;;-2.38;0.00
23318;BME280;11831;55.918;37.746;2023-02-28T10:43:43;98812.06;;;-2.54;0.00
23318;BME280;11831;55.918;37.746;2023-02-28T10:48:40;98751.72;;;-1.87;0.00
23318;BME280;11831;55.918;37.746;2023-02-28T10:51:09;98743.37;;;-2.23;0.00
23318;BME280;11831;55.918;37.746;2023-02-28T10:53:52;98738.63;;;-2.36;0.00
23318;BME280;11831;55.918;37.746;2023-02-28T10:56:28;98719.00;;;-2.07;0.00
23318;BME280;11831;55.918;37.746;2023-02-28T11:01:40;98721.59;;;-2.32;0.00
23318;BME280;11831;55.918;37.746;2023-02-28T11:07:00;98731.75;;;-2.29;0.00
23318;BME280;11831;55.918;37.746;2023-02-28T11:09:30;98707.22;;;-2.44;0.00
23318;BME280;11831;55.918;37.746;2023-02-28T11:12:00;98795.25;;;-2.43;0.00
23318;BME280;11831;55.918;37.746;2023-02-28T11:14:28;98713.41;;;-2.21;0.00
23318;BME280;11831;55.918;37.746;2023-02-28T11:17:00;98740.75;;;-2.15;0.00
23318;BME280;11831;55.918;37.746;2023-02-28T11:19:40;98707.31;;;-1.89;0.00
23318;BME280;11831;55.918;37.746;2023-02-28T11:22:07;98697.28;;;-1.61;0.00
23318;BME280;11831;55.918;37.746;2023-02-28T11:24:42;98694.69;;;-1.69;0.00
23318;BME280;11831;55.918;37.746;2023-02-28T11:27:48;98722.41;;;-1.82;0.00
23318;BME280;11831;55.918;37.746;2023-02-28T11:30:25;98710.53;;;-1.46;0.00
23318;BME280;11831;55.918;37.746;2023-02-28T11:32:52;98694.53;;;-1.28;0.00
23318;BME280;11831;55.918;37.746;2023-02-28T11:35:31;98682.53;;;-1.14;0.00
23318;BME280;11831;55.918;37.746;2023-02-28T11:38:00;98684.84;;;-1.19;0.00
23318;BME280;11831;55.918;37.746;2023-02-28T11:40:39;98697.50;;;-1.78;0.00
23318;BME280;11831;55.918;37.746;2023-02-28T11:46:41;98697.06;;;-1.43;0.00
23318;BME280;11831;55.918;37.746;2023-02-28T11:49:43;98682.00;;;-1.41;0.00
23318;BME280;11831;55.918;37.746;2023-02-28T12:08:47;98657.44;;;-1.56;0.00
23318;BME280;11831;55.918;37.746;2023-02-28T12:17:20;98670.78;;;-1.74;0.00
23318;BME280;11831;55.918;37.746;2023-02-28T12:20:54;98649.84;;;-1.82;0.00
23318;BME280;11831;55.918;37.746;2023-02-28T12:28:25;98642.88;;;-1.59;0.00
23318;BME280;11831;55.918;37.746;2023-02-28T12:31:08;98657.59;;;-1.49;0.00
23318;BME280;11831;55.918;37.746;2023-02-28T12:33:42;98670.75;;;-1.27;0.00
23318;BME280;11831;55.918;37.746;2023-02-28T12:36:13;98628.06;;;-1.43;0.00
23318;BME280;11831;55.918;37.746;2023-02-28T12:38:56;98633.97;;;-1.41;0.00
23318;BME280;11831;55.918;37.746;2023-02-28T12:41:39;98645.84;;;-1.62;0.00
23318;BME280;11831;55.918;37.746;2023-02-28T12:44:35;98591.72;;;-1.46;0.00
23318;BME280;11831;55.918;37.746;2023-02-28T12:47:09;98638.03;;;-1.39;0.00
23318;BME280;11831;55.918;37.746;2023-02-28T12:49:59;98589.34;;;-1.33;0.00
23318;BME280;11831;55.918;37.746;2023-02-28T12:55:04;98568.41;;;-1.41;0.00
23318;BME280;11831;55.918;37.746;2023-02-28T13:05:28;98570.53;;;-1.14;0.00
23318;BME280;11831;55.918;37.746;2023-02-28T13:10:47;98590.53;;;-1.44;0.00
23318;BME280;11831;55.918;37.746;2023-02-28T13:13:18;98558.09;;;-1.43;0.00
23318;BME280;11831;55.918;37.746;2023-02-28T13:18:32;98567.75;;;-1.12;0.00
23318;BME280;11831;55.918;37.746;2023-02-28T13:21:00;98552.87;;;-1.20;0.00
23318;BME280;11831;55.918;37.746;2023-02-28T13:34:33;98528.41;;;-0.75;0.00
23318;BME280;11831;55.918;37.746;2023-02-28T13:55:43;98546.59;;;-0.73;0.00
23318;BME280;11831;55.918;37.746;2023-02-28T14:01:15;98522.81;;;-0.95;0.00
23318;BME280;11831;55.918;37.746;2023-02-28T14:06:29;98521.13;;;-0.50;0.00
23318;BME280;11831;55.918;37.746;2023-02-28T14:11:38;98521.84;;;-0.56;0.00
23318;BME280;11831;55.918;37.746;2023-02-28T14:14:07;98525.28;;;-0.41;0.00
23318;BME280;11831;55.918;37.746;2023-02-28T14:16:44;98558.72;;;-0.72;0.00
23318;BME280;11831;55.918;37.746;2023-02-28T14:19:23;98542.72;;;-0.63;0.00
23318;BME280;11831;55.918;37.746;2023-02-28T14:27:40;98498.34;;;-0.72;0.00
23318;BME280;11831;55.918;37.746;2023-02-28T14:30:37;98485.97;;;-0.49;0.00
23318;BME280;11831;55.918;37.746;2023-02-28T14:38:21;98472.84;;;-0.19;0.00
23318;BME280;11831;55.918;37.746;2023-02-28T14:40:52;98518.31;;;-0.48;0.00
23318;BME280;11831;55.918;37.746;2023-02-28T14:43:25;98467.16;;;-0.52;0.00
23318;BME280;11831;55.918;37.746;2023-02-28T14:45:57;98459.81;;;-0.42;0.00
23318;BME280;11831;55.918;37.746;2023-02-28T14:48:26;98468.41;;;-0.34;0.00
23318;BME280;11831;55.918;37.746;2023-02-28T14:50:57;98466.41;;;-0.17;0.00
23318;BME280;11831;55.918;37.746;2023-02-28T14:53:26;98485.44;;;-0.44;0.00
23318;BME280;11831;55.918;37.746;2023-02-28T14:55:53;98477.72;;;-0.02;0.00
23318;BME280;11831;55.918;37.746;2023-02-28T14:58:33;98471.78;;;-0.54;0.00
23318;BME280;11831;55.918;37.746;2023-02-28T15:01:02;98478.47;;;-0.37;0.00
23318;BME280;11831;55.918;37.746;2023-02-28T15:03:33;98473.75;;;-0.12;0.00
23318;BME280;11831;55.918;37.746;2023-02-28T15:06:02;98525.19;;;-0.47;0.00
23318;BME280;11831;55.918;37.746;2023-02-28T15:08:30;98470.75;;;-0.39;0.00
23318;BME280;11831;55.918;37.746;2023-02-28T15:11:13;98501.38;;;-0.31;0.00
23318;BME280;11831;55.918;37.746;2023-02-28T15:13:46;98470.94;;;-0.40;0.00
23318;BME280;11831;55.918;37.746;2023-02-28T15:16:20;98498.13;;;-0.48;0.00
23318;BME280;11831;55.918;37.746;2023-02-28T15:18:53;98518.50;;;-0.35;0.00
23318;BME280;11831;55.918;37.746;2023-02-28T15:23:55;98458.09;;;-0.50;0.00
23318;BME280;11831;55.918;37.746;2023-02-28T15:26:27;98456.00;;;-0.25;0.00
23318;BME280;11831;55.918;37.746;2023-02-28T15:29:01;98469.59;;;-0.21;0.00
23318;BME280;11831;55.918;37.746;2023-02-28T15:31:31;98445.50;;;-0.40;0.00
23318;BME280;11831;55.918;37.746;2023-02-28T15:34:04;98444.19;;;0.01;0.00
23318;BME280;11831;55.918;37.746;2023-02-28T15:36:33;98441.41;;;0.23;0.00
23318;BME280;11831;55.918;37.746;2023-02-28T15:39:17;98449.78;;;-0.03;0.00
23318;BME280;11831;55.918;37.746;2023-02-28T15:41:44;98449.81;;;-0.32;0.00
23318;BME280;11831;55.918;37.746;2023-02-28T15:44:26;98515.44;;;-0.24;0.00